createdAt,value
2022-11-27T00:01:20.115Z,25.03
2022-11-27T00:03:46.991Z,24.10
2022-11-27T00:06:16.240Z,23.60
2022-11-27T00:08:43.753Z,24.70
2022-11-27T00:11:16.988Z,24.80
2022-11-27T00:13:43.866Z,25.63
2022-11-27T00:16:12.085Z,24.83
2022-11-27T00:18:38.504Z,22.67
2022-11-27T00:21:07.568Z,22.83
2022-11-27T00:23:34.662Z,23.43
2022-11-27T00:26:04.412Z,24.40
2022-11-27T00:28:31.211Z,24.73
2022-11-27T00:31:03.401Z,26.30
2022-11-27T00:33:29.908Z,25.60
2022-11-27T00:35:56.381Z,24.70
2022-11-27T00:38:22.521Z,25.10
2022-11-27T00:40:48.916Z,24.50
2022-11-27T00:43:15.050Z,24.33
2022-11-27T00:45:41.410Z,26.10
2022-11-27T00:48:07.507Z,26.43
2022-11-27T00:50:34.097Z,25.80
2022-11-27T00:53:00.402Z,24.47
2022-11-27T00:55:26.787Z,24.87
2022-11-27T00:57:52.920Z,25.37
2022-11-27T01:00:19.866Z,26.47
2022-11-27T01:02:46.033Z,24.63
2022-11-27T01:05:12.802Z,25.37
2022-11-27T01:07:39.022Z,25.20
2022-11-27T01:10:06.587Z,24.27
2022-11-27T01:12:32.836Z,24.47
2022-11-27T01:14:59.233Z,24.47
2022-11-27T01:17:25.373Z,25.40
2022-11-27T01:19:51.734Z,24.93
2022-11-27T01:22:17.872Z,23.57
2022-11-27T01:24:44.294Z,24.93
2022-11-27T01:27:10.689Z,25.23
2022-11-27T01:29:37.095Z,24.97
2022-11-27T01:32:03.243Z,25.30
2022-11-27T01:34:29.786Z,24.70
2022-11-27T01:36:55.873Z,26.03
2022-11-27T01:39:23.783Z,26.77
2022-11-27T01:41:50.046Z,26.30
2022-11-27T01:44:22.674Z,26.70
2022-11-27T01:46:53.069Z,26.07
2022-11-27T01:49:33.498Z,27.73
2022-11-27T01:52:18.108Z,28.97
2022-11-27T01:54:55.885Z,30.60
2022-11-27T01:57:26.549Z,26.10
2022-11-27T01:59:55.740Z,27.40
2022-11-27T02:02:21.903Z,28.10
2022-11-27T02:04:48.436Z,27.90
2022-11-27T02:07:14.953Z,27.70
2022-11-27T02:09:41.551Z,27.83
2022-11-27T02:12:15.401Z,26.70
2022-11-27T02:14:59.141Z,28.63
2022-11-27T02:17:42.727Z,26.73
2022-11-27T02:20:39.659Z,25.73
2022-11-27T02:23:39.918Z,25.93
2022-11-27T02:26:21.301Z,25.00
2022-11-27T02:28:56.560Z,25.83
2022-11-27T02:32:01.471Z,26.37
2022-11-27T02:34:52.886Z,25.73
2022-11-27T02:37:50.118Z,22.63
2022-11-27T02:40:31.367Z,24.23
2022-11-27T02:43:12.247Z,23.90
2022-11-27T02:45:42.572Z,23.63
2022-11-27T02:48:11.830Z,23.80
2022-11-27T02:50:41.064Z,24.57
2022-11-27T02:53:12.506Z,23.67
2022-11-27T02:55:39.800Z,24.73
2022-11-27T02:58:11.936Z,24.50
2022-11-27T03:00:41.376Z,25.47
2022-11-27T03:03:11.646Z,23.07
2022-11-27T03:05:41.641Z,25.37
2022-11-27T03:08:23.660Z,25.23
2022-11-27T03:10:49.762Z,24.17
2022-11-27T03:13:16.621Z,25.80
2022-11-27T03:16:09.597Z,24.03
2022-11-27T03:19:01.632Z,24.73
2022-11-27T03:21:38.758Z,25.53
2022-11-27T03:24:06.786Z,24.97
2022-11-27T03:26:33.214Z,24.70
2022-11-27T03:29:02.098Z,26.50
2022-11-27T03:31:30.452Z,25.93
2022-11-27T03:33:57.007Z,24.70
2022-11-27T03:36:23.270Z,24.97
2022-11-27T03:38:51.954Z,27.33
2022-11-27T03:41:23.287Z,26.00
2022-11-27T03:44:07.773Z,25.07
2022-11-27T03:46:55.916Z,25.07
2022-11-27T03:49:39.787Z,25.83
2022-11-27T03:52:28.116Z,24.03
2022-11-27T03:55:05.900Z,24.37
2022-11-27T03:57:51.783Z,25.53
2022-11-27T04:00:18.702Z,27.40
2022-11-27T04:02:51.220Z,26.60
2022-11-27T04:05:18.597Z,26.33
2022-11-27T04:07:44.680Z,26.47
2022-11-27T04:10:12.176Z,26.37
2022-11-27T04:12:38.547Z,26.80
2022-11-27T04:15:06.299Z,24.70
2022-11-27T04:17:32.574Z,24.83
2022-11-27T04:19:58.949Z,26.87
2022-11-27T04:22:25.073Z,28.23
2022-11-27T04:24:51.638Z,27.03
2022-11-27T04:27:17.828Z,24.13
2022-11-27T04:29:44.444Z,24.47
2022-11-27T04:32:10.537Z,25.73
2022-11-27T04:34:36.880Z,25.80
2022-11-27T04:37:03.022Z,26.07
2022-11-27T04:39:30.057Z,24.90
2022-11-27T04:41:56.199Z,24.73
2022-11-27T04:44:22.725Z,23.93
2022-11-27T04:46:49.562Z,25.37
2022-11-27T04:49:18.128Z,26.10
2022-11-27T04:51:45.108Z,22.73
2022-11-27T04:54:11.954Z,24.67
2022-11-27T04:56:38.664Z,23.13
2022-11-27T04:59:05.347Z,24.57
2022-11-27T05:01:31.934Z,25.00
2022-11-27T05:03:58.535Z,27.17
2022-11-27T05:06:24.828Z,25.67
2022-11-27T05:08:58.929Z,30.43
2022-11-27T05:11:26.134Z,24.23
2022-11-27T05:14:12.584Z,23.80
2022-11-27T05:16:39.165Z,25.23
2022-11-27T05:19:05.680Z,27.73
2022-11-27T05:21:32.913Z,34.27
2022-11-27T05:23:59.349Z,33.33
2022-11-27T05:26:25.583Z,27.30
2022-11-27T05:28:52.077Z,28.37
2022-11-27T05:31:18.370Z,27.40
2022-11-27T05:33:44.821Z,28.40
2022-11-27T05:36:10.998Z,27.27
2022-11-27T05:38:37.637Z,22.70
2022-11-27T05:41:04.143Z,22.30
2022-11-27T05:43:30.694Z,21.93
2022-11-27T05:45:57.058Z,22.43
2022-11-27T05:48:23.519Z,21.80
2022-11-27T05:50:49.691Z,20.97
2022-11-27T05:53:16.369Z,21.33
2022-11-27T05:55:42.784Z,21.23
2022-11-27T05:58:09.404Z,21.67
2022-11-27T06:00:35.899Z,20.87
2022-11-27T06:03:02.718Z,21.67
2022-11-27T06:05:29.338Z,21.50
2022-11-27T06:07:56.132Z,21.53
2022-11-27T06:10:22.467Z,21.73
2022-11-27T06:12:48.963Z,20.67
2022-11-27T06:15:15.213Z,19.57
2022-11-27T06:17:41.553Z,19.83
2022-11-27T06:20:07.985Z,21.97
2022-11-27T06:22:34.306Z,27.37
2022-11-27T06:25:00.485Z,30.47
2022-11-27T06:27:32.884Z,37.23
2022-11-27T06:29:59.012Z,32.57
2022-11-27T06:32:25.507Z,26.23
2022-11-27T06:34:52.799Z,23.43
2022-11-27T06:37:19.258Z,21.80
2022-11-27T06:39:47.571Z,20.23
2022-11-27T06:42:14.272Z,20.13
2022-11-27T06:44:43.422Z,23.73
2022-11-27T06:47:10.155Z,24.73
2022-11-27T06:49:36.376Z,23.97
2022-11-27T06:52:02.917Z,18.43
2022-11-27T06:54:29.067Z,18.40
2022-11-27T06:56:55.958Z,19.47
2022-11-27T06:59:22.233Z,20.03
2022-11-27T07:01:50.176Z,20.17
2022-11-27T07:04:16.473Z,20.53
2022-11-27T07:06:43.186Z,19.80
2022-11-27T07:09:09.715Z,22.07
2022-11-27T07:11:37.802Z,19.43
2022-11-27T07:14:05.052Z,20.40
2022-11-27T07:16:34.319Z,19.23
2022-11-27T07:19:05.254Z,19.17
2022-11-27T07:21:32.877Z,18.37
2022-11-27T07:24:00.660Z,17.77
2022-11-27T07:26:29.277Z,18.33
2022-11-27T07:28:56.482Z,18.40
2022-11-27T07:31:27.511Z,19.13
2022-11-27T07:33:54.141Z,18.97
2022-11-27T07:36:23.308Z,19.03
2022-11-27T07:38:50.012Z,18.50
2022-11-27T07:41:18.019Z,18.97
2022-11-27T07:43:45.743Z,20.03
2022-11-27T07:46:18.665Z,20.00
2022-11-27T07:48:45.847Z,19.37
2022-11-27T07:51:15.515Z,19.97
2022-11-27T07:53:42.159Z,20.60
2022-11-27T07:56:11.598Z,19.90
2022-11-27T07:58:38.135Z,20.87
2022-11-27T08:01:10.601Z,24.87
2022-11-27T08:03:37.560Z,20.67
2022-11-27T08:06:05.193Z,19.30
2022-11-27T08:08:34.097Z,21.13
2022-11-27T08:11:00.729Z,20.27
2022-11-27T08:13:28.527Z,20.47
2022-11-27T08:15:59.146Z,25.97
2022-11-27T08:18:25.316Z,30.40
2022-11-27T08:20:51.785Z,35.50
2022-11-27T08:23:17.916Z,34.47
2022-11-27T08:25:44.817Z,27.97
2022-11-27T08:28:10.968Z,25.53
2022-11-27T08:30:37.654Z,23.13
2022-11-27T08:33:03.876Z,19.40
2022-11-27T08:35:30.301Z,21.10
2022-11-27T08:37:56.842Z,20.17
2022-11-27T08:40:23.474Z,19.93
2022-11-27T08:42:49.563Z,21.63
2022-11-27T08:45:15.924Z,20.50
2022-11-27T08:47:42.792Z,20.23
2022-11-27T08:50:09.473Z,20.50
2022-11-27T08:52:35.887Z,18.43
2022-11-27T08:55:03.102Z,19.33
2022-11-27T08:57:29.251Z,19.37
2022-11-27T08:59:55.677Z,19.30
2022-11-27T09:02:21.865Z,19.13
2022-11-27T09:04:48.520Z,27.47
2022-11-27T09:07:16.058Z,20.03
2022-11-27T09:09:42.700Z,28.23
2022-11-27T09:12:09.050Z,39.00
2022-11-27T09:14:35.659Z,23.73
2022-11-27T09:17:01.940Z,21.50
2022-11-27T09:19:28.802Z,56.57
2022-11-27T09:21:55.576Z,24.93
2022-11-27T09:24:22.177Z,19.70
2022-11-27T09:26:48.423Z,22.90
2022-11-27T09:29:15.450Z,20.23
2022-11-27T09:31:41.956Z,17.83
2022-11-27T09:34:08.677Z,18.73
2022-11-27T09:36:35.177Z,23.00
2022-11-27T09:39:02.959Z,21.97
2022-11-27T09:41:54.165Z,20.23
2022-11-27T09:44:32.804Z,23.07
2022-11-27T09:47:06.007Z,15.13
2022-11-27T09:49:42.084Z,22.37
2022-11-27T09:52:21.871Z,21.07
2022-11-27T09:55:24.396Z,30.63
2022-11-27T09:58:16.835Z,28.57
2022-11-27T10:00:47.480Z,20.50
2022-11-27T10:03:24.990Z,25.93
2022-11-27T10:06:02.848Z,15.47
2022-11-27T10:08:47.259Z,25.73
2022-11-27T10:11:25.721Z,16.10
2022-11-27T10:14:23.317Z,56.53
2022-11-27T10:17:08.516Z,20.70
2022-11-27T10:19:43.953Z,20.33
2022-11-27T10:22:16.601Z,18.93
2022-11-27T10:24:58.381Z,17.37
2022-11-27T10:27:33.147Z,15.07
2022-11-27T10:30:04.200Z,13.43
2022-11-27T10:32:54.515Z,30.50
2022-11-27T10:35:23.489Z,20.70
2022-11-27T10:38:06.737Z,15.87
2022-11-27T10:40:45.651Z,13.73
2022-11-27T10:43:18.810Z,13.77
2022-11-27T10:45:51.004Z,26.17
2022-11-27T10:48:18.194Z,15.00
2022-11-27T10:50:47.921Z,12.23
2022-11-27T10:53:24.579Z,13.20
2022-11-27T10:56:13.151Z,14.30
2022-11-27T10:58:46.704Z,13.23
2022-11-27T11:01:18.254Z,11.60
2022-11-27T11:03:44.848Z,11.50
2022-11-27T11:06:24.543Z,23.40
2022-11-27T11:09:22.928Z,12.90
2022-11-27T11:11:51.584Z,14.60
2022-11-27T11:14:25.958Z,16.17
2022-11-27T11:16:54.061Z,18.53
2022-11-27T11:19:34.416Z,17.10
2022-11-27T11:22:14.556Z,13.33
2022-11-27T11:24:46.488Z,12.93
2022-11-27T11:27:26.481Z,15.50
2022-11-27T11:29:57.828Z,16.67
2022-11-27T11:32:27.701Z,16.90
2022-11-27T11:35:25.159Z,18.87
2022-11-27T11:37:52.654Z,15.07
2022-11-27T11:40:19.073Z,15.77
2022-11-27T11:42:58.111Z,16.20
2022-11-27T11:45:30.015Z,19.73
2022-11-27T11:48:01.877Z,12.93
2022-11-27T11:50:40.376Z,15.13
2022-11-27T11:53:31.287Z,15.70
2022-11-27T11:56:05.445Z,14.30
2022-11-27T11:58:40.472Z,13.10
2022-11-27T12:01:27.448Z,14.27
2022-11-27T12:04:19.042Z,22.87
2022-11-27T12:06:59.462Z,16.60
2022-11-27T12:09:40.532Z,23.23
2022-11-27T12:12:37.061Z,19.87
2022-11-27T12:15:21.482Z,17.60
2022-11-27T12:17:54.354Z,16.50
2022-11-27T12:20:30.245Z,22.07
2022-11-27T12:23:18.636Z,39.50
2022-11-27T12:25:53.065Z,16.90
2022-11-27T12:28:32.148Z,16.30
2022-11-27T12:31:02.185Z,16.80
2022-11-27T12:33:48.361Z,19.70
2022-11-27T12:37:00.174Z,18.93
2022-11-27T12:39:48.809Z,24.20
2022-11-27T12:42:32.396Z,23.20
2022-11-27T12:45:14.006Z,22.00
2022-11-27T12:47:43.021Z,26.43
2022-11-27T12:50:34.245Z,18.93
2022-11-27T12:53:24.980Z,18.37
2022-11-27T12:56:23.931Z,16.63
2022-11-27T12:59:01.469Z,17.90
2022-11-27T13:01:35.100Z,20.53
2022-11-27T13:04:30.581Z,26.80
2022-11-27T13:07:27.905Z,33.30
2022-11-27T13:10:16.551Z,26.40
2022-11-27T13:12:49.994Z,24.17
2022-11-27T13:15:43.697Z,21.43
2022-11-27T13:18:19.646Z,107.80
2022-11-27T13:20:52.156Z,137.10
2022-11-27T13:23:20.625Z,119.13
2022-11-27T13:25:53.552Z,36.57
2022-11-27T13:28:23.423Z,27.50
2022-11-27T13:30:52.949Z,22.63
2022-11-27T13:33:43.618Z,22.33
2022-11-27T13:36:26.438Z,24.10
2022-11-27T13:39:01.346Z,24.60
2022-11-27T13:41:39.699Z,24.93
2022-11-27T13:44:27.928Z,22.53
2022-11-27T13:47:05.587Z,24.40
2022-11-27T13:49:39.261Z,20.77
2022-11-27T13:52:19.533Z,20.47
2022-11-27T13:55:00.366Z,21.57
2022-11-27T13:57:28.509Z,19.77
2022-11-27T14:00:01.168Z,25.80
2022-11-27T14:02:46.149Z,34.60
2022-11-27T14:05:19.260Z,29.33
2022-11-27T14:07:51.696Z,42.50
2022-11-27T14:10:22.878Z,20.63
2022-11-27T14:12:57.462Z,19.73
2022-11-27T14:15:26.420Z,18.63
2022-11-27T14:18:13.987Z,19.17
2022-11-27T14:20:57.291Z,22.10
2022-11-27T14:23:31.518Z,20.43
2022-11-27T14:26:15.250Z,20.10
2022-11-27T14:28:44.707Z,18.93
2022-11-27T14:31:32.621Z,19.07
2022-11-27T14:34:20.637Z,18.03
2022-11-27T14:36:51.691Z,17.73
2022-11-27T14:39:32.472Z,17.80
2022-11-27T14:42:01.185Z,17.30
2022-11-27T14:44:27.987Z,18.67
2022-11-27T14:46:57.407Z,19.07
2022-11-27T14:49:26.465Z,23.63
2022-11-27T14:52:02.419Z,18.43
2022-11-27T14:54:32.401Z,17.33
2022-11-27T14:56:59.521Z,17.03
2022-11-27T14:59:26.246Z,25.40
2022-11-27T15:01:59.040Z,32.10
2022-11-27T15:04:27.215Z,24.27
2022-11-27T15:06:56.981Z,45.97
2022-11-27T15:09:33.828Z,49.67
2022-11-27T15:12:15.959Z,40.67
2022-11-27T15:14:54.422Z,34.97
2022-11-27T15:17:30.892Z,33.50
2022-11-27T15:20:00.639Z,30.90
2022-11-27T15:22:30.545Z,28.80
2022-11-27T15:25:07.603Z,26.23
2022-11-27T15:27:47.175Z,22.67
2022-11-27T15:30:18.191Z,20.40
2022-11-27T15:32:53.982Z,19.07
2022-11-27T15:35:34.773Z,21.17
2022-11-27T15:38:10.224Z,24.30
2022-11-27T15:40:39.333Z,21.67
2022-11-27T15:43:15.101Z,20.63
2022-11-27T15:45:42.995Z,21.30
2022-11-27T15:48:19.719Z,17.60
2022-11-27T15:50:52.035Z,16.23
2022-11-27T15:53:19.801Z,17.43
2022-11-27T15:55:47.136Z,16.63
2022-11-27T15:58:14.952Z,14.50
2022-11-27T16:00:41.354Z,15.23
2022-11-27T16:03:07.866Z,14.70
2022-11-27T16:05:34.080Z,15.00
2022-11-27T16:08:00.751Z,15.80
2022-11-27T16:10:27.009Z,15.43
2022-11-27T16:12:54.385Z,15.23
2022-11-27T16:15:23.088Z,14.93
2022-11-27T16:17:51.248Z,14.77
2022-11-27T16:20:17.596Z,15.20
2022-11-27T16:22:44.235Z,14.63
2022-11-27T16:25:12.695Z,14.27
2022-11-27T16:27:39.538Z,13.50
2022-11-27T16:30:06.504Z,15.00
2022-11-27T16:32:37.347Z,14.37
2022-11-27T16:35:03.970Z,14.37
2022-11-27T16:37:30.624Z,15.27
2022-11-27T16:39:57.384Z,14.70
2022-11-27T16:42:24.322Z,13.37
2022-11-27T16:44:50.909Z,14.87
2022-11-27T16:47:17.559Z,14.43
2022-11-27T16:49:47.904Z,14.60
2022-11-27T16:52:15.132Z,15.10
2022-11-27T16:54:41.756Z,15.53
2022-11-27T16:57:08.504Z,44.57
2022-11-27T16:59:37.530Z,39.20
2022-11-27T17:02:05.237Z,24.00
2022-11-27T17:04:31.497Z,17.37
2022-11-27T17:06:59.376Z,15.40
2022-11-27T17:09:28.747Z,15.73
2022-11-27T17:11:55.297Z,18.33
2022-11-27T17:14:26.190Z,17.47
2022-11-27T17:16:52.998Z,18.27
2022-11-27T17:19:23.387Z,18.50
2022-11-27T17:21:50.399Z,20.10
2022-11-27T17:24:17.649Z,17.97
2022-11-27T17:26:46.777Z,15.63
2022-11-27T17:29:15.465Z,15.87
2022-11-27T17:31:42.633Z,15.03
2022-11-27T17:34:13.217Z,16.20
2022-11-27T17:36:42.386Z,20.90
2022-11-27T17:39:11.474Z,20.30
2022-11-27T17:41:39.990Z,26.53
2022-11-27T17:44:07.427Z,21.97
2022-11-27T17:46:36.377Z,22.53
2022-11-27T17:49:06.539Z,18.73
2022-11-27T17:51:35.778Z,21.80
2022-11-27T17:54:04.751Z,23.80
2022-11-27T17:56:33.538Z,27.27
2022-11-27T17:59:00.684Z,25.83
2022-11-27T18:01:30.434Z,25.60
2022-11-27T18:04:00.400Z,28.10
2022-11-27T18:06:30.930Z,23.20
2022-11-27T18:08:59.280Z,22.17
2022-11-27T18:11:29.333Z,21.43
2022-11-27T18:13:58.893Z,60.60
2022-11-27T18:16:28.570Z,89.27
2022-11-27T18:18:56.425Z,62.30
2022-11-27T18:21:24.412Z,52.70
2022-11-27T18:27:06.657Z,26.83
2022-11-27T18:29:26.774Z,23.20
2022-11-27T18:31:54.810Z,21.93
2022-11-27T18:34:21.327Z,21.13
2022-11-27T18:36:49.380Z,20.60
2022-11-27T18:39:16.202Z,20.73
2022-11-27T18:41:43.007Z,21.33
2022-11-27T18:44:09.771Z,21.70
2022-11-27T18:46:37.953Z,21.67
2022-11-27T18:49:04.884Z,21.80
2022-11-27T18:51:34.414Z,23.90
2022-11-27T18:54:01.408Z,19.57
2022-11-27T18:56:30.510Z,19.33
2022-11-27T18:59:02.695Z,19.40
2022-11-27T19:01:35.414Z,19.37
2022-11-27T19:04:05.765Z,18.77
2022-11-27T19:06:35.195Z,18.67
2022-11-27T19:09:01.536Z,20.90
2022-11-27T19:11:30.163Z,22.27
2022-11-27T19:13:57.443Z,23.80
2022-11-27T19:16:28.288Z,21.50
2022-11-27T19:18:59.103Z,20.63
2022-11-27T19:21:27.716Z,22.13
2022-11-27T19:23:57.490Z,20.67
2022-11-27T19:26:30.118Z,21.37
2022-11-27T19:28:59.760Z,24.20
2022-11-27T19:31:26.954Z,23.67
2022-11-27T19:33:58.444Z,22.67
2022-11-27T19:36:25.387Z,21.07
2022-11-27T19:38:57.482Z,22.40
2022-11-27T19:41:24.708Z,21.17
2022-11-27T19:43:50.970Z,21.23
2022-11-27T19:46:21.072Z,20.70
2022-11-27T19:48:47.846Z,23.40
2022-11-27T19:51:15.051Z,22.80
2022-11-27T19:53:43.657Z,23.00
2022-11-27T19:56:12.112Z,22.30
2022-11-27T19:58:38.676Z,21.83
2022-11-27T20:01:17.659Z,23.97
2022-11-27T20:03:48.147Z,23.90
2022-11-27T20:06:17.763Z,21.83
2022-11-27T20:08:47.070Z,23.37
2022-11-27T20:11:17.026Z,20.87
2022-11-27T20:13:44.539Z,21.03
2022-11-27T20:16:17.662Z,21.43
2022-11-27T20:18:45.423Z,22.40
2022-11-27T20:21:21.452Z,21.03
2022-11-27T20:23:49.777Z,22.63
2022-11-27T20:26:19.742Z,22.43
2022-11-27T20:28:46.685Z,21.93
2022-11-27T20:31:17.647Z,20.97
2022-11-27T20:33:44.760Z,20.60
2022-11-27T20:36:14.060Z,22.03
2022-11-27T20:38:40.928Z,22.17
2022-11-27T20:41:09.895Z,22.37
2022-11-27T20:43:36.865Z,23.83
2022-11-27T20:46:04.417Z,23.30
2022-11-27T20:48:31.315Z,20.70
2022-11-27T20:51:07.863Z,21.50
2022-11-27T20:53:36.950Z,21.37
2022-11-27T20:56:06.489Z,21.67
2022-11-27T20:58:37.813Z,20.93
2022-11-27T21:01:18.750Z,20.87
2022-11-27T21:03:46.298Z,20.83
2022-11-27T21:06:17.440Z,21.73
2022-11-27T21:08:44.339Z,21.53
2022-11-27T21:11:30.585Z,19.57
2022-11-27T21:14:00.974Z,21.53
2022-11-27T21:16:31.086Z,20.73
2022-11-27T21:18:59.814Z,20.37
2022-11-27T21:21:29.520Z,21.53
2022-11-27T21:23:56.215Z,20.20
2022-11-27T21:26:23.328Z,19.07
2022-11-27T21:28:50.568Z,20.07
2022-11-27T21:31:19.709Z,19.17
2022-11-27T21:33:53.972Z,18.80
2022-11-27T21:36:23.866Z,19.40
2022-11-27T21:38:50.272Z,19.13
2022-11-27T21:41:18.043Z,18.73
2022-11-27T21:43:45.086Z,20.67
2022-11-27T21:46:19.544Z,19.23
2022-11-27T21:48:47.247Z,18.33
2022-11-27T21:51:14.678Z,19.27
2022-11-27T21:53:45.252Z,19.07
2022-11-27T21:56:14.734Z,21.23
2022-11-27T21:58:42.436Z,20.93
2022-11-27T22:01:17.256Z,19.87
2022-11-27T22:03:46.406Z,21.97
2022-11-27T22:06:15.391Z,19.07
2022-11-27T22:08:43.772Z,19.20
2022-11-27T22:11:17.273Z,20.33
2022-11-27T22:13:43.894Z,19.17
2022-11-27T22:16:12.596Z,19.03
2022-11-27T22:18:39.718Z,18.17
2022-11-27T22:21:09.891Z,19.17
2022-11-27T22:23:36.173Z,19.73
2022-11-27T22:26:04.749Z,20.00
2022-11-27T22:28:31.304Z,18.90
2022-11-27T22:30:58.097Z,19.03
2022-11-27T22:33:24.460Z,17.80
2022-11-27T22:35:50.917Z,19.57
2022-11-27T22:38:17.159Z,18.00
2022-11-27T22:40:44.020Z,17.27
2022-11-27T22:43:10.610Z,16.93
2022-11-27T22:45:38.977Z,19.60
2022-11-27T22:48:05.713Z,18.00
2022-11-27T22:50:33.345Z,18.63
2022-11-27T22:52:59.689Z,17.10
2022-11-27T22:55:27.642Z,18.67
2022-11-27T22:57:55.305Z,16.50
2022-11-27T23:00:22.357Z,16.70
2022-11-27T23:02:48.959Z,18.80
2022-11-27T23:05:15.806Z,17.40
2022-11-27T23:07:42.524Z,17.43
2022-11-27T23:10:09.778Z,18.23
2022-11-27T23:12:36.058Z,18.00
2022-11-27T23:15:02.806Z,17.33
2022-11-27T23:17:29.029Z,16.80
2022-11-27T23:19:55.560Z,17.57
2022-11-27T23:22:22.002Z,18.07
2022-11-27T23:24:48.475Z,17.20
2022-11-27T23:27:14.640Z,17.33
2022-11-27T23:29:41.113Z,18.40
2022-11-27T23:32:07.301Z,18.83
2022-11-27T23:34:33.724Z,17.33
2022-11-27T23:36:59.882Z,18.07
2022-11-27T23:39:26.370Z,17.10
2022-11-27T23:41:52.599Z,18.50
2022-11-27T23:44:20.116Z,17.40
2022-11-27T23:46:47.348Z,17.77
2022-11-27T23:49:13.925Z,17.73
2022-11-27T23:51:40.076Z,18.43
2022-11-27T23:54:08.943Z,16.97
2022-11-27T23:56:36.372Z,17.93
2022-11-27T23:59:02.799Z,18.57
